sensor_id;sensor_type;location;lat;lon;timestamp;temperature;humidity
39825;DHT22;25503;52.532;13.640;2023-09-12T00:01:33;18.60;99.90
39825;DHT22;25503;52.532;13.640;2023-09-12T00:03:59;18.50;99.90
39825;DHT22;25503;52.532;13.640;2023-09-12T00:06:25;18.40;99.90
39825;DHT22;25503;52.532;13.640;2023-09-12T00:08:51;18.30;99.90
39825;DHT22;25503;52.532;13.640;2023-09-12T00:11:17;18.30;99.90
39825;DHT22;25503;52.532;13.640;2023-09-12T00:13:44;18.30;99.90
39825;DHT22;25503;52.532;13.640;2023-09-12T00:16:09;18.20;99.90
39825;DHT22;25503;52.532;13.640;2023-09-12T00:18:39;18.20;99.90
39825;DHT22;25503;52.532;13.640;2023-09-12T00:21:04;18.10;99.90
39825;DHT22;25503;52.532;13.640;2023-09-12T00:23:30;18.10;99.90
39825;DHT22;25503;52.532;13.640;2023-09-12T00:25:57;18.10;99.90
39825;DHT22;25503;52.532;13.640;2023-09-12T00:28:22;18.10;99.90
39825;DHT22;25503;52.532;13.640;2023-09-12T00:30:48;18.10;99.90
39825;DHT22;25503;52.532;13.640;2023-09-12T00:33:14;18.10;99.90
39825;DHT22;25503;52.532;13.640;2023-09-12T00:35:39;18.10;99.90
39825;DHT22;25503;52.532;13.640;2023-09-12T00:38:05;18.00;99.90
39825;DHT22;25503;52.532;13.640;2023-09-12T00:40:32;18.10;99.90
39825;DHT22;25503;52.532;13.640;2023-09-12T00:42:58;18.00;99.90
39825;DHT22;25503;52.532;13.640;2023-09-12T00:45:24;18.00;99.90
39825;DHT22;25503;52.532;13.640;2023-09-12T00:47:51;18.00;99.90
39825;DHT22;25503;52.532;13.640;2023-09-12T00:50:18;18.00;99.90
39825;DHT22;25503;52.532;13.640;2023-09-12T00:52:45;18.00;99.90
39825;DHT22;25503;52.532;13.640;2023-09-12T00:55:11;18.00;99.90
39825;DHT22;25503;52.532;13.640;2023-09-12T00:57:37;18.00;99.90
39825;DHT22;25503;52.532;13.640;2023-09-12T01:00:05;18.00;99.90
39825;DHT22;25503;52.532;13.640;2023-09-12T01:02:38;17.90;99.90
39825;DHT22;25503;52.532;13.640;2023-09-12T01:05:06;17.90;99.90
39825;DHT22;25503;52.532;13.640;2023-09-12T01:07:32;17.90;99.90
39825;DHT22;25503;52.532;13.640;2023-09-12T01:09:59;17.90;99.90
39825;DHT22;25503;52.532;13.640;2023-09-12T01:12:24;17.80;99.90
39825;DHT22;25503;52.532;13.640;2023-09-12T01:14:50;17.80;99.90
39825;DHT22;25503;52.532;13.640;2023-09-12T01:17:16;17.70;99.90
39825;DHT22;25503;52.532;13.640;2023-09-12T01:19:41;17.70;99.90
39825;DHT22;25503;52.532;13.640;2023-09-12T01:28:02;17.60;99.90
39825;DHT22;25503;52.532;13.640;2023-09-12T01:30:32;17.60;99.90
39825;DHT22;25503;52.532;13.640;2023-09-12T01:32:58;17.50;99.90
39825;DHT22;25503;52.532;13.640;2023-09-12T01:35:24;17.50;99.90
39825;DHT22;25503;52.532;13.640;2023-09-12T01:37:50;17.40;99.90
39825;DHT22;25503;52.532;13.640;2023-09-12T01:40:17;17.40;99.90
39825;DHT22;25503;52.532;13.640;2023-09-12T01:42:46;17.40;99.90
39825;DHT22;25503;52.532;13.640;2023-09-12T01:45:16;17.40;99.90
39825;DHT22;25503;52.532;13.640;2023-09-12T01:47:46;17.30;99.90
39825;DHT22;25503;52.532;13.640;2023-09-12T01:50:14;17.30;99.90
39825;DHT22;25503;52.532;13.640;2023-09-12T01:52:43;17.30;99.90
39825;DHT22;25503;52.532;13.640;2023-09-12T01:55:25;17.30;99.90
39825;DHT22;25503;52.532;13.640;2023-09-12T01:57:54;17.20;99.90
39825;DHT22;25503;52.532;13.640;2023-09-12T02:00:21;17.20;99.90
39825;DHT22;25503;52.532;13.640;2023-09-12T02:02:51;17.10;99.90
39825;DHT22;25503;52.532;13.640;2023-09-12T02:05:24;17.20;99.90
39825;DHT22;25503;52.532;13.640;2023-09-12T02:07:53;17.10;99.90
39825;DHT22;25503;52.532;13.640;2023-09-12T02:10:19;17.20;99.90
39825;DHT22;25503;52.532;13.640;2023-09-12T02:12:48;17.10;99.90
39825;DHT22;25503;52.532;13.640;2023-09-12T02:15:15;17.10;99.90
39825;DHT22;25503;52.532;13.640;2023-09-12T02:17:45;17.10;99.90
39825;DHT22;25503;52.532;13.640;2023-09-12T02:20:12;17.10;99.90
39825;DHT22;25503;52.532;13.640;2023-09-12T02:22:39;17.10;99.90
39825;DHT22;25503;52.532;13.640;2023-09-12T02:25:08;17.00;99.90
39825;DHT22;25503;52.532;13.640;2023-09-12T02:27:36;17.00;99.90
39825;DHT22;25503;52.532;13.640;2023-09-12T02:30:03;17.00;99.90
39825;DHT22;25503;52.532;13.640;2023-09-12T02:32:29;17.00;99.90
39825;DHT22;25503;52.532;13.640;2023-09-12T02:34:55;17.00;99.90
39825;DHT22;25503;52.532;13.640;2023-09-12T02:37:24;17.00;99.90
39825;DHT22;25503;52.532;13.640;2023-09-12T02:39:50;17.00;99.90
39825;DHT22;25503;52.532;13.640;2023-09-12T02:42:16;17.10;99.90
39825;DHT22;25503;52.532;13.640;2023-09-12T02:44:43;17.10;99.90
39825;DHT22;25503;52.532;13.640;2023-09-12T02:47:08;17.10;99.90
39825;DHT22;25503;52.532;13.640;2023-09-12T02:49:34;17.10;99.90
39825;DHT22;25503;52.532;13.640;2023-09-12T02:52:00;17.10;99.90
39825;DHT22;25503;52.532;13.640;2023-09-12T02:54:25;17.00;99.90
39825;DHT22;25503;52.532;13.640;2023-09-12T02:56:51;17.00;99.90
39825;DHT22;25503;52.532;13.640;2023-09-12T02:59:16;16.90;99.90
39825;DHT22;25503;52.532;13.640;2023-09-12T03:01:43;16.90;99.90
39825;DHT22;25503;52.532;13.640;2023-09-12T03:04:08;16.80;99.90
39825;DHT22;25503;52.532;13.640;2023-09-12T03:06:34;16.80;99.90
39825;DHT22;25503;52.532;13.640;2023-09-12T03:08:59;16.70;99.90
39825;DHT22;25503;52.532;13.640;2023-09-12T03:11:26;16.60;99.90
39825;DHT22;25503;52.532;13.640;2023-09-12T03:13:53;16.60;99.90
39825;DHT22;25503;52.532;13.640;2023-09-12T03:16:18;16.60;99.90
39825;DHT22;25503;52.532;13.640;2023-09-12T03:18:44;16.60;99.90
39825;DHT22;25503;52.532;13.640;2023-09-12T03:21:09;16.60;99.90
39825;DHT22;25503;52.532;13.640;2023-09-12T03:23:35;16.60;99.90
39825;DHT22;25503;52.532;13.640;2023-09-12T03:26:05;16.60;99.90
39825;DHT22;25503;52.532;13.640;2023-09-12T03:28:31;16.60;99.90
39825;DHT22;25503;52.532;13.640;2023-09-12T03:31:08;16.60;99.90
39825;DHT22;25503;52.532;13.640;2023-09-12T03:33:34;16.50;99.90
39825;DHT22;25503;52.532;13.640;2023-09-12T03:36:00;16.50;99.90
39825;DHT22;25503;52.532;13.640;2023-09-12T03:38:25;16.50;99.90
39825;DHT22;25503;52.532;13.640;2023-09-12T03:40:51;16.40;99.90
39825;DHT22;25503;52.532;13.640;2023-09-12T03:43:16;16.40;99.90
39825;DHT22;25503;52.532;13.640;2023-09-12T03:45:42;16.40;99.90
39825;DHT22;25503;52.532;13.640;2023-09-12T03:48:08;16.40;99.90
39825;DHT22;25503;52.532;13.640;2023-09-12T03:50:33;16.40;99.90
39825;DHT22;25503;52.532;13.640;2023-09-12T03:52:59;16.30;99.90
39825;DHT22;25503;52.532;13.640;2023-09-12T03:55:24;16.30;99.90
39825;DHT22;25503;52.532;13.640;2023-09-12T03:57:50;16.30;99.90
39825;DHT22;25503;52.532;13.640;2023-09-12T04:00:16;16.40;99.90
39825;DHT22;25503;52.532;13.640;2023-09-12T04:02:41;16.40;99.90
39825;DHT22;25503;52.532;13.640;2023-09-12T04:05:07;16.40;99.90
39825;DHT22;25503;52.532;13.640;2023-09-12T04:07:33;16.40;99.90
39825;DHT22;25503;52.532;13.640;2023-09-12T04:09:58;16.40;99.90
39825;DHT22;25503;52.532;13.640;2023-09-12T04:12:24;16.40;99.90
39825;DHT22;25503;52.532;13.640;2023-09-12T04:14:50;16.50;99.90
39825;DHT22;25503;52.532;13.640;2023-09-12T04:17:20;16.50;99.90
39825;DHT22;25503;52.532;13.640;2023-09-12T04:19:45;16.50;99.90
39825;DHT22;25503;52.532;13.640;2023-09-12T04:22:11;16.40;99.90
39825;DHT22;25503;52.532;13.640;2023-09-12T04:24:37;16.40;99.90
39825;DHT22;25503;52.532;13.640;2023-09-12T04:27:02;16.50;99.90
39825;DHT22;25503;52.532;13.640;2023-09-12T04:29:28;16.50;99.90
39825;DHT22;25503;52.532;13.640;2023-09-12T04:32:05;16.50;99.90
39825;DHT22;25503;52.532;13.640;2023-09-12T04:34:31;16.40;99.90
39825;DHT22;25503;52.532;13.640;2023-09-12T04:36:57;16.50;99.90
39825;DHT22;25503;52.532;13.640;2023-09-12T04:39:22;16.40;99.90
39825;DHT22;25503;52.532;13.640;2023-09-12T04:41:48;16.40;99.90
39825;DHT22;25503;52.532;13.640;2023-09-12T04:44:14;16.30;99.90
39825;DHT22;25503;52.532;13.640;2023-09-12T04:46:40;16.20;99.90
39825;DHT22;25503;52.532;13.640;2023-09-12T04:49:05;16.10;99.90
39825;DHT22;25503;52.532;13.640;2023-09-12T04:51:31;16.00;99.90
39825;DHT22;25503;52.532;13.640;2023-09-12T04:53:57;15.90;99.90
39825;DHT22;25503;52.532;13.640;2023-09-12T04:56:22;15.90;99.90
39825;DHT22;25503;52.532;13.640;2023-09-12T04:58:51;15.80;99.90
39825;DHT22;25503;52.532;13.640;2023-09-12T05:01:17;15.90;99.90
39825;DHT22;25503;52.532;13.640;2023-09-12T05:03:43;15.90;99.90
39825;DHT22;25503;52.532;13.640;2023-09-12T05:06:09;15.90;99.90
39825;DHT22;25503;52.532;13.640;2023-09-12T05:08:35;16.00;99.90
39825;DHT22;25503;52.532;13.640;2023-09-12T05:11:01;16.00;99.90
39825;DHT22;25503;52.532;13.640;2023-09-12T05:13:28;16.00;99.90
39825;DHT22;25503;52.532;13.640;2023-09-12T05:15:53;16.10;99.90
39825;DHT22;25503;52.532;13.640;2023-09-12T05:18:19;16.10;99.90
39825;DHT22;25503;52.532;13.640;2023-09-12T05:20:44;16.10;99.90
39825;DHT22;25503;52.532;13.640;2023-09-12T05:23:10;16.20;99.90
39825;DHT22;25503;52.532;13.640;2023-09-12T05:25:36;16.20;99.90
39825;DHT22;25503;52.532;13.640;2023-09-12T05:28:02;16.30;99.90
39825;DHT22;25503;52.532;13.640;2023-09-12T05:30:28;16.30;99.90
39825;DHT22;25503;52.532;13.640;2023-09-12T05:32:54;16.30;99.90
39825;DHT22;25503;52.532;13.640;2023-09-12T05:35:19;16.40;99.90
39825;DHT22;25503;52.532;13.640;2023-09-12T05:37:45;16.40;99.90
39825;DHT22;25503;52.532;13.640;2023-09-12T05:40:10;16.40;99.90
39825;DHT22;25503;52.532;13.640;2023-09-12T05:42:36;16.50;99.90
39825;DHT22;25503;52.532;13.640;2023-09-12T05:45:03;16.60;99.90
39825;DHT22;25503;52.532;13.640;2023-09-12T05:47:29;16.70;99.90
39825;DHT22;25503;52.532;13.640;2023-09-12T05:49:55;16.80;99.90
39825;DHT22;25503;52.532;13.640;2023-09-12T05:52:21;16.80;99.90
39825;DHT22;25503;52.532;13.640;2023-09-12T05:54:46;16.90;99.90
39825;DHT22;25503;52.532;13.640;2023-09-12T05:57:12;17.00;99.90
39825;DHT22;25503;52.532;13.640;2023-09-12T05:59:38;17.10;99.90
39825;DHT22;25503;52.532;13.640;2023-09-12T06:02:05;17.20;99.90
39825;DHT22;25503;52.532;13.640;2023-09-12T06:04:32;17.30;99.90
39825;DHT22;25503;52.532;13.640;2023-09-12T06:06:58;17.40;99.90
39825;DHT22;25503;52.532;13.640;2023-09-12T06:09:23;17.40;99.90
39825;DHT22;25503;52.532;13.640;2023-09-12T06:11:49;17.50;99.90
39825;DHT22;25503;52.532;13.640;2023-09-12T06:14:14;17.60;99.90
39825;DHT22;25503;52.532;13.640;2023-09-12T06:16:40;17.60;99.90
39825;DHT22;25503;52.532;13.640;2023-09-12T06:19:06;17.70;99.90
39825;DHT22;25503;52.532;13.640;2023-09-12T06:21:31;17.80;99.90
39825;DHT22;25503;52.532;13.640;2023-09-12T06:24:11;17.90;99.90
39825;DHT22;25503;52.532;13.640;2023-09-12T06:26:38;18.00;99.90
39825;DHT22;25503;52.532;13.640;2023-09-12T06:29:04;18.10;99.90
39825;DHT22;25503;52.532;13.640;2023-09-12T06:31:30;18.20;99.90
39825;DHT22;25503;52.532;13.640;2023-09-12T06:33:55;18.30;99.90
39825;DHT22;25503;52.532;13.640;2023-09-12T06:36:22;18.40;99.90
39825;DHT22;25503;52.532;13.640;2023-09-12T06:38:49;18.50;99.90
39825;DHT22;25503;52.532;13.640;2023-09-12T06:41:15;18.70;99.90
39825;DHT22;25503;52.532;13.640;2023-09-12T06:43:40;18.80;99.90
39825;DHT22;25503;52.532;13.640;2023-09-12T06:46:06;19.00;99.90
39825;DHT22;25503;52.532;13.640;2023-09-12T06:48:31;19.10;99.90
39825;DHT22;25503;52.532;13.640;2023-09-12T06:50:57;19.20;99.90
39825;DHT22;25503;52.532;13.640;2023-09-12T06:53:22;19.40;99.90
39825;DHT22;25503;52.532;13.640;2023-09-12T06:55:48;19.60;99.90
39825;DHT22;25503;52.532;13.640;2023-09-12T06:58:14;19.70;99.90
39825;DHT22;25503;52.532;13.640;2023-09-12T07:00:39;19.80;99.90
39825;DHT22;25503;52.532;13.640;2023-09-12T07:03:05;20.00;99.90
39825;DHT22;25503;52.532;13.640;2023-09-12T07:05:31;20.10;99.90
39825;DHT22;25503;52.532;13.640;2023-09-12T07:07:56;20.30;99.90
39825;DHT22;25503;52.532;13.640;2023-09-12T07:10:22;20.40;99.90
39825;DHT22;25503;52.532;13.640;2023-09-12T07:12:48;20.60;99.90
39825;DHT22;25503;52.532;13.640;2023-09-12T07:15:14;20.70;99.90
39825;DHT22;25503;52.532;13.640;2023-09-12T07:17:39;20.90;99.90
39825;DHT22;25503;52.532;13.640;2023-09-12T07:20:06;21.00;99.90
39825;DHT22;25503;52.532;13.640;2023-09-12T07:22:37;21.10;99.90
39825;DHT22;25503;52.532;13.640;2023-09-12T07:25:04;21.30;99.90
39825;DHT22;25503;52.532;13.640;2023-09-12T07:27:29;21.40;99.90
39825;DHT22;25503;52.532;13.640;2023-09-12T07:29:55;21.60;99.90
39825;DHT22;25503;52.532;13.640;2023-09-12T07:32:20;21.70;99.90
39825;DHT22;25503;52.532;13.640;2023-09-12T07:34:46;21.80;99.90
39825;DHT22;25503;52.532;13.640;2023-09-12T07:37:14;22.00;99.90
39825;DHT22;25503;52.532;13.640;2023-09-12T07:39:39;22.10;99.90
39825;DHT22;25503;52.532;13.640;2023-09-12T07:42:05;22.30;99.90
39825;DHT22;25503;52.532;13.640;2023-09-12T07:44:31;22.40;99.90
39825;DHT22;25503;52.532;13.640;2023-09-12T07:46:56;22.50;99.90
39825;DHT22;25503;52.532;13.640;2023-09-12T07:49:22;22.70;99.90
39825;DHT22;25503;52.532;13.640;2023-09-12T07:51:49;22.80;99.90
39825;DHT22;25503;52.532;13.640;2023-09-12T07:54:15;22.90;99.90
39825;DHT22;25503;52.532;13.640;2023-09-12T07:56:43;23.00;99.90
39825;DHT22;25503;52.532;13.640;2023-09-12T07:59:09;23.10;99.90
39825;DHT22;25503;52.532;13.640;2023-09-12T08:01:35;23.30;99.90
39825;DHT22;25503;52.532;13.640;2023-09-12T08:04:01;23.40;99.90
39825;DHT22;25503;52.532;13.640;2023-09-12T08:06:26;23.50;99.90
39825;DHT22;25503;52.532;13.640;2023-09-12T08:08:52;23.60;99.90
39825;DHT22;25503;52.532;13.640;2023-09-12T08:11:18;23.70;99.90
39825;DHT22;25503;52.532;13.640;2023-09-12T08:13:45;23.90;99.90
39825;DHT22;25503;52.532;13.640;2023-09-12T08:16:11;24.10;99.90
39825;DHT22;25503;52.532;13.640;2023-09-12T08:18:36;24.20;99.90
39825;DHT22;25503;52.532;13.640;2023-09-12T08:21:02;24.40;99.90
39825;DHT22;25503;52.532;13.640;2023-09-12T08:23:28;24.50;99.90
39825;DHT22;25503;52.532;13.640;2023-09-12T08:25:53;24.70;99.90
39825;DHT22;25503;52.532;13.640;2023-09-12T08:28:19;24.90;99.90
39825;DHT22;25503;52.532;13.640;2023-09-12T08:30:45;25.00;99.90
39825;DHT22;25503;52.532;13.640;2023-09-12T08:33:13;25.20;99.90
39825;DHT22;25503;52.532;13.640;2023-09-12T08:35:39;25.30;99.90
39825;DHT22;25503;52.532;13.640;2023-09-12T08:38:05;25.50;99.90
39825;DHT22;25503;52.532;13.640;2023-09-12T08:40:32;25.60;99.90
39825;DHT22;25503;52.532;13.640;2023-09-12T08:42:58;25.70;99.90
39825;DHT22;25503;52.532;13.640;2023-09-12T08:45:24;25.80;99.90
39825;DHT22;25503;52.532;13.640;2023-09-12T08:47:52;25.90;99.90
39825;DHT22;25503;52.532;13.640;2023-09-12T08:50:18;26.10;99.90
39825;DHT22;25503;52.532;13.640;2023-09-12T08:52:46;26.20;99.90
39825;DHT22;25503;52.532;13.640;2023-09-12T08:55:13;26.40;99.90
39825;DHT22;25503;52.532;13.640;2023-09-12T08:57:40;26.50;99.90
39825;DHT22;25503;52.532;13.640;2023-09-12T09:00:07;26.60;99.90
39825;DHT22;25503;52.532;13.640;2023-09-12T09:02:40;26.80;99.90
39825;DHT22;25503;52.532;13.640;2023-09-12T09:05:07;26.80;99.90
39825;DHT22;25503;52.532;13.640;2023-09-12T09:07:41;26.90;99.90
39825;DHT22;25503;52.532;13.640;2023-09-12T09:10:15;26.90;99.90
39825;DHT22;25503;52.532;13.640;2023-09-12T09:12:44;27.10;99.90
39825;DHT22;25503;52.532;13.640;2023-09-12T09:15:27;27.20;99.90
39825;DHT22;25503;52.532;13.640;2023-09-12T09:17:54;27.30;99.90
39825;DHT22;25503;52.532;13.640;2023-09-12T09:20:33;27.30;99.90
39825;DHT22;25503;52.532;13.640;2023-09-12T09:23:04;27.40;99.90
39825;DHT22;25503;52.532;13.640;2023-09-12T09:25:39;27.50;99.90
39825;DHT22;25503;52.532;13.640;2023-09-12T09:28:19;27.60;99.90
39825;DHT22;25503;52.532;13.640;2023-09-12T09:30:46;27.70;99.90
39825;DHT22;25503;52.532;13.640;2023-09-12T09:33:13;27.80;99.90
39825;DHT22;25503;52.532;13.640;2023-09-12T09:35:46;27.90;99.90
39825;DHT22;25503;52.532;13.640;2023-09-12T09:38:12;27.90;99.90
39825;DHT22;25503;52.532;13.640;2023-09-12T09:40:42;28.00;99.90
39825;DHT22;25503;52.532;13.640;2023-09-12T09:43:09;28.20;99.90
39825;DHT22;25503;52.532;13.640;2023-09-12T09:45:43;28.40;99.90
39825;DHT22;25503;52.532;13.640;2023-09-12T09:48:22;28.50;99.90
39825;DHT22;25503;52.532;13.640;2023-09-12T09:50:48;28.70;99.90
39825;DHT22;25503;52.532;13.640;2023-09-12T09:53:14;28.80;99.90
39825;DHT22;25503;52.532;13.640;2023-09-12T09:55:40;29.00;99.90
39825;DHT22;25503;52.532;13.640;2023-09-12T09:58:07;29.10;99.90
39825;DHT22;25503;52.532;13.640;2023-09-12T10:00:35;29.10;99.90
39825;DHT22;25503;52.532;13.640;2023-09-12T10:03:04;29.30;99.90
39825;DHT22;25503;52.532;13.640;2023-09-12T10:05:31;29.40;99.90
39825;DHT22;25503;52.532;13.640;2023-09-12T10:07:58;29.40;99.90
39825;DHT22;25503;52.532;13.640;2023-09-12T10:10:26;29.60;99.90
39825;DHT22;25503;52.532;13.640;2023-09-12T10:12:57;29.70;99.90
39825;DHT22;25503;52.532;13.640;2023-09-12T10:15:29;29.80;99.90
39825;DHT22;25503;52.532;13.640;2023-09-12T10:17:57;29.90;99.90
39825;DHT22;25503;52.532;13.640;2023-09-12T10:20:45;30.10;99.90
39825;DHT22;25503;52.532;13.640;2023-09-12T10:26:03;30.20;99.90
39825;DHT22;25503;52.532;13.640;2023-09-12T10:28:28;30.30;99.90
39825;DHT22;25503;52.532;13.640;2023-09-12T10:30:57;30.30;99.90
39825;DHT22;25503;52.532;13.640;2023-09-12T10:33:22;30.30;99.90
39825;DHT22;25503;52.532;13.640;2023-09-12T10:35:49;30.30;99.90
39825;DHT22;25503;52.532;13.640;2023-09-12T10:38:16;30.30;99.90
39825;DHT22;25503;52.532;13.640;2023-09-12T10:40:44;30.20;99.90
39825;DHT22;25503;52.532;13.640;2023-09-12T10:43:12;30.20;99.90
39825;DHT22;25503;52.532;13.640;2023-09-12T10:45:40;30.30;99.90
39825;DHT22;25503;52.532;13.640;2023-09-12T10:48:06;30.40;99.90
39825;DHT22;25503;52.532;13.640;2023-09-12T10:50:35;30.50;99.90
39825;DHT22;25503;52.532;13.640;2023-09-12T10:53:15;30.60;99.90
39825;DHT22;25503;52.532;13.640;2023-09-12T10:55:41;30.70;99.90
39825;DHT22;25503;52.532;13.640;2023-09-12T10:58:09;30.90;99.90
39825;DHT22;25503;52.532;13.640;2023-09-12T11:00:36;31.00;99.90
39825;DHT22;25503;52.532;13.640;2023-09-12T11:05:58;31.20;99.90
39825;DHT22;25503;52.532;13.640;2023-09-12T11:08:24;31.20;99.90
39825;DHT22;25503;52.532;13.640;2023-09-12T11:11:17;31.10;99.90
39825;DHT22;25503;52.532;13.640;2023-09-12T11:13:44;31.30;99.90
39825;DHT22;25503;52.532;13.640;2023-09-12T11:16:15;31.30;99.90
39825;DHT22;25503;52.532;13.640;2023-09-12T11:19:17;31.40;99.90
39825;DHT22;25503;52.532;13.640;2023-09-12T11:21:51;31.50;99.90
39825;DHT22;25503;52.532;13.640;2023-09-12T11:24:17;31.60;99.90
39825;DHT22;25503;52.532;13.640;2023-09-12T11:26:57;31.70;99.90
39825;DHT22;25503;52.532;13.640;2023-09-12T11:29:41;31.60;99.90
39825;DHT22;25503;52.532;13.640;2023-09-12T11:32:07;31.60;99.90
39825;DHT22;25503;52.532;13.640;2023-09-12T11:34:43;31.70;99.90
39825;DHT22;25503;52.532;13.640;2023-09-12T11:37:10;31.90;99.90
39825;DHT22;25503;52.532;13.640;2023-09-12T11:39:36;31.90;99.90
39825;DHT22;25503;52.532;13.640;2023-09-12T11:42:03;32.10;99.90
39825;DHT22;25503;52.532;13.640;2023-09-12T11:44:30;32.10;99.90
39825;DHT22;25503;52.532;13.640;2023-09-12T11:46:59;32.00;99.90
39825;DHT22;25503;52.532;13.640;2023-09-12T11:49:36;32.00;99.90
39825;DHT22;25503;52.532;13.640;2023-09-12T11:52:03;32.20;99.90
39825;DHT22;25503;52.532;13.640;2023-09-12T11:54:30;32.20;99.90
39825;DHT22;25503;52.532;13.640;2023-09-12T11:56:57;32.20;99.90
39825;DHT22;25503;52.532;13.640;2023-09-12T11:59:28;32.20;99.90
39825;DHT22;25503;52.532;13.640;2023-09-12T12:01:54;32.10;99.90
39825;DHT22;25503;52.532;13.640;2023-09-12T12:04:24;32.10;99.90
39825;DHT22;25503;52.532;13.640;2023-09-12T12:06:53;32.10;99.90
39825;DHT22;25503;52.532;13.640;2023-09-12T12:09:19;32.10;99.90
39825;DHT22;25503;52.532;13.640;2023-09-12T12:11:46;32.20;99.90
39825;DHT22;25503;52.532;13.640;2023-09-12T12:16:37;32.20;99.90
39825;DHT22;25503;52.532;13.640;2023-09-12T12:19:03;32.30;99.90
39825;DHT22;25503;52.532;13.640;2023-09-12T12:21:28;32.40;99.90
39825;DHT22;25503;52.532;13.640;2023-09-12T12:24:01;32.50;99.90
39825;DHT22;25503;52.532;13.640;2023-09-12T12:26:28;32.60;99.90
39825;DHT22;25503;52.532;13.640;2023-09-12T12:28:54;32.60;99.90
39825;DHT22;25503;52.532;13.640;2023-09-12T12:31:20;32.80;99.90
39825;DHT22;25503;52.532;13.640;2023-09-12T12:33:53;32.70;99.90
39825;DHT22;25503;52.532;13.640;2023-09-12T12:36:20;32.80;99.90
39825;DHT22;25503;52.532;13.640;2023-09-12T12:38:47;32.90;99.90
39825;DHT22;25503;52.532;13.640;2023-09-12T12:41:14;32.90;99.90
39825;DHT22;25503;52.532;13.640;2023-09-12T12:43:41;32.80;99.90
39825;DHT22;25503;52.532;13.640;2023-09-12T12:46:11;32.70;99.90
39825;DHT22;25503;52.532;13.640;2023-09-12T12:48:43;32.80;99.90
39825;DHT22;25503;52.532;13.640;2023-09-12T12:51:24;32.70;99.90
39825;DHT22;25503;52.532;13.640;2023-09-12T12:53:54;32.80;99.90
39825;DHT22;25503;52.532;13.640;2023-09-12T12:56:28;32.80;99.90
39825;DHT22;25503;52.532;13.640;2023-09-12T12:58:55;32.60;99.90
39825;DHT22;25503;52.532;13.640;2023-09-12T13:01:22;32.30;99.90
39825;DHT22;25503;52.532;13.640;2023-09-12T13:03:48;31.80;99.90
39825;DHT22;25503;52.532;13.640;2023-09-12T13:06:15;31.40;99.90
39825;DHT22;25503;52.532;13.640;2023-09-12T13:08:44;31.10;99.90
39825;DHT22;25503;52.532;13.640;2023-09-12T13:11:11;31.00;99.90
39825;DHT22;25503;52.532;13.640;2023-09-12T13:13:38;31.00;99.90
39825;DHT22;25503;52.532;13.640;2023-09-12T13:16:06;31.20;99.90
39825;DHT22;25503;52.532;13.640;2023-09-12T13:18:35;31.30;99.90
39825;DHT22;25503;52.532;13.640;2023-09-12T13:21:01;31.30;99.90
39825;DHT22;25503;52.532;13.640;2023-09-12T13:23:28;31.30;99.90
39825;DHT22;25503;52.532;13.640;2023-09-12T13:25:54;31.30;99.90
39825;DHT22;25503;52.532;13.640;2023-09-12T13:28:20;31.40;99.90
39825;DHT22;25503;52.532;13.640;2023-09-12T13:30:45;31.50;99.90
39825;DHT22;25503;52.532;13.640;2023-09-12T13:33:12;31.70;99.90
39825;DHT22;25503;52.532;13.640;2023-09-12T13:35:40;31.80;99.90
39825;DHT22;25503;52.532;13.640;2023-09-12T13:38:06;32.00;99.90
39825;DHT22;25503;52.532;13.640;2023-09-12T13:40:38;32.10;99.90
39825;DHT22;25503;52.532;13.640;2023-09-12T13:43:04;32.10;99.90
39825;DHT22;25503;52.532;13.640;2023-09-12T13:45:30;32.20;99.90
39825;DHT22;25503;52.532;13.640;2023-09-12T13:47:58;32.40;99.90
39825;DHT22;25503;52.532;13.640;2023-09-12T13:50:24;32.50;99.90
39825;DHT22;25503;52.532;13.640;2023-09-12T13:52:50;32.60;99.90
39825;DHT22;25503;52.532;13.640;2023-09-12T13:55:15;32.60;99.90
39825;DHT22;25503;52.532;13.640;2023-09-12T13:57:42;32.60;99.90
39825;DHT22;25503;52.532;13.640;2023-09-12T14:00:08;32.60;99.90
39825;DHT22;25503;52.532;13.640;2023-09-12T14:02:34;32.40;99.90
39825;DHT22;25503;52.532;13.640;2023-09-12T14:04:59;32.30;99.90
39825;DHT22;25503;52.532;13.640;2023-09-12T14:07:26;32.20;99.90
39825;DHT22;25503;52.532;13.640;2023-09-12T14:09:52;32.20;99.90
39825;DHT22;25503;52.532;13.640;2023-09-12T14:12:24;32.20;99.90
39825;DHT22;25503;52.532;13.640;2023-09-12T14:14:51;32.10;99.90
39825;DHT22;25503;52.532;13.640;2023-09-12T14:17:17;32.00;99.90
39825;DHT22;25503;52.532;13.640;2023-09-12T14:19:43;32.00;99.90
39825;DHT22;25503;52.532;13.640;2023-09-12T14:22:08;32.00;99.90
39825;DHT22;25503;52.532;13.640;2023-09-12T14:24:34;31.90;99.90
39825;DHT22;25503;52.532;13.640;2023-09-12T14:26:59;31.80;99.90
39825;DHT22;25503;52.532;13.640;2023-09-12T14:29:25;31.90;99.90
39825;DHT22;25503;52.532;13.640;2023-09-12T14:31:53;31.80;99.90
39825;DHT22;25503;52.532;13.640;2023-09-12T14:34:24;31.80;99.90
39825;DHT22;25503;52.532;13.640;2023-09-12T14:36:55;31.60;99.90
39825;DHT22;25503;52.532;13.640;2023-09-12T14:39:22;31.40;99.90
39825;DHT22;25503;52.532;13.640;2023-09-12T14:41:47;31.20;99.90
39825;DHT22;25503;52.532;13.640;2023-09-12T14:44:18;31.20;99.90
39825;DHT22;25503;52.532;13.640;2023-09-12T14:46:44;31.10;99.90
39825;DHT22;25503;52.532;13.640;2023-09-12T14:49:09;31.10;99.90
39825;DHT22;25503;52.532;13.640;2023-09-12T14:51:36;31.00;99.90
39825;DHT22;25503;52.532;13.640;2023-09-12T14:54:05;31.00;99.90
39825;DHT22;25503;52.532;13.640;2023-09-12T14:56:32;30.90;99.90
39825;DHT22;25503;52.532;13.640;2023-09-12T14:58:58;30.80;99.90
39825;DHT22;25503;52.532;13.640;2023-09-12T15:01:24;30.70;99.90
39825;DHT22;25503;52.532;13.640;2023-09-12T15:03:51;30.60;99.90
39825;DHT22;25503;52.532;13.640;2023-09-12T15:06:17;30.50;99.90
39825;DHT22;25503;52.532;13.640;2023-09-12T15:08:42;30.30;99.90
39825;DHT22;25503;52.532;13.640;2023-09-12T15:11:08;30.10;99.90
39825;DHT22;25503;52.532;13.640;2023-09-12T15:13:34;30.00;99.90
39825;DHT22;25503;52.532;13.640;2023-09-12T15:16:00;29.90;99.90
39825;DHT22;25503;52.532;13.640;2023-09-12T15:18:25;29.80;99.90
39825;DHT22;25503;52.532;13.640;2023-09-12T15:20:52;29.70;99.90
39825;DHT22;25503;52.532;13.640;2023-09-12T15:23:19;29.70;99.90
39825;DHT22;25503;52.532;13.640;2023-09-12T15:25:45;29.50;99.90
39825;DHT22;25503;52.532;13.640;2023-09-12T15:28:10;29.40;99.90
39825;DHT22;25503;52.532;13.640;2023-09-12T15:30:36;29.20;99.90